Time;durP1;ratioP1;P1;durP2;ratioP2;P2;SDS_P1;SDS_P2;PMS_P1;PMS_P2;Temp;Humidity;BMP_temperature;BMP_pressure;BME280_temperature;BME280_humidity;BME280_pressure;Samples;Min_cycle;Max_cycle;Signal;HPM_P1;HPM_P2
2024/01/30 00:01:56;;;;;;;14.52;7.00;;;9.10;99.90;;;;;;5092780;28;20392;-56
2024/01/30 00:04:21;;;;;;;20.60;7.50;;;9.10;99.90;;;;;;5092950;28;20484;-56
2024/01/30 00:06:47;;;;;;;20.77;7.45;;;9.10;99.90;;;;;;5092675;28;20147;-57
2024/01/30 00:09:13;;;;;;;18.05;7.15;;;9.20;99.90;;;;;;5093582;28;20020;-57
2024/01/30 00:11:39;;;;;;;14.07;7.25;;;9.20;99.90;;;;;;5093677;28;20016;-55
2024/01/30 00:14:05;;;;;;;12.43;6.72;;;9.10;99.90;;;;;;5095634;28;20472;-58
2024/01/30 00:16:31;;;;;;;11.73;6.65;;;9.20;99.90;;;;;;5100994;27;20422;-57
2024/01/30 00:18:57;;;;;;;14.50;7.05;;;9.20;99.90;;;;;;5136526;27;20051;-56
2024/01/30 00:21:22;;;;;;;12.05;7.03;;;9.30;99.90;;;;;;5113500;28;20028;-57
2024/01/30 00:23:48;;;;;;;15.32;7.55;;;9.30;99.90;;;;;;5097167;28;20493;-57
2024/01/30 00:26:14;;;;;;;11.57;5.90;;;9.20;99.90;;;;;;5097130;28;20086;-56
2024/01/30 00:28:43;;;;;;;10.32;5.88;;;9.20;99.90;;;;;;5096836;28;20133;-55
2024/01/30 00:31:12;;;;;;;13.57;6.38;;;9.20;99.90;;;;;;5096434;28;20468;-57
2024/01/30 00:33:39;;;;;;;10.50;6.13;;;9.30;99.90;;;;;;5096724;28;20457;-56
2024/01/30 00:36:06;;;;;;;11.43;6.75;;;9.20;99.90;;;;;;5096664;28;20040;-57
2024/01/30 00:38:32;;;;;;;9.50;6.17;;;9.30;99.90;;;;;;5096676;28;20395;-57
2024/01/30 00:40:57;;;;;;;11.93;6.32;;;9.20;99.90;;;;;;5096345;28;20099;-57
2024/01/30 00:43:24;;;;;;;19.38;7.15;;;9.20;99.90;;;;;;5095481;28;20118;-55
2024/01/30 00:45:51;;;;;;;13.23;7.18;;;9.20;99.90;;;;;;5096472;28;20459;-57
2024/01/30 00:48:17;;;;;;;13.33;7.00;;;9.20;99.90;;;;;;5096409;28;20499;-57
2024/01/30 00:50:43;;;;;;;13.40;6.65;;;9.20;99.90;;;;;;5094978;28;20258;-57
2024/01/30 00:53:08;;;;;;;15.50;6.65;;;9.10;99.90;;;;;;5096357;28;20031;-57
2024/01/30 00:55:35;;;;;;;16.33;6.82;;;9.10;99.90;;;;;;5096112;28;20032;-54
2024/01/30 00:58:01;;;;;;;14.00;6.50;;;9.20;99.90;;;;;;5096019;28;20024;-56
2024/01/30 01:00:29;;;;;;;12.90;6.28;;;9.10;99.90;;;;;;5096830;28;20024;-57
2024/01/30 01:02:58;;;;;;;11.88;6.70;;;9.10;99.90;;;;;;5095796;28;20035;-59
2024/01/30 01:05:23;;;;;;;10.18;6.18;;;9.10;99.90;;;;;;5095869;28;20016;-57
2024/01/30 01:07:49;;;;;;;10.85;5.97;;;9.20;99.90;;;;;;5095846;28;20035;-59
2024/01/30 01:10:17;;;;;;;13.15;7.45;;;9.20;99.90;;;;;;5095619;28;20545;-53
2024/01/30 01:12:42;;;;;;;16.13;7.18;;;9.20;99.90;;;;;;5095571;28;20039;-56
2024/01/30 01:15:11;;;;;;;13.15;7.18;;;9.20;99.90;;;;;;5095700;28;20020;-57
2024/01/30 01:17:38;;;;;;;13.25;6.10;;;9.20;99.90;;;;;;5119212;27;20019;-55
2024/01/30 01:20:07;;;;;;;12.32;6.07;;;9.20;99.90;;;;;;5113955;27;20072;-54
2024/01/30 01:22:34;;;;;;;15.88;7.35;;;9.10;99.90;;;;;;5095641;28;20028;-56
2024/01/30 01:25:00;;;;;;;12.75;6.28;;;9.00;99.90;;;;;;5095688;28;20476;-53
2024/01/30 01:27:26;;;;;;;12.50;5.75;;;9.00;99.90;;;;;;5095375;28;20032;-55
2024/01/30 01:29:52;;;;;;;9.75;5.93;;;9.00;99.90;;;;;;5095268;28;20016;-54
2024/01/30 01:32:18;;;;;;;11.43;5.65;;;9.00;99.90;;;;;;5095188;28;20476;-54
2024/01/30 01:34:44;;;;;;;13.00;6.30;;;9.10;99.90;;;;;;5110413;28;20030;-54
2024/01/30 01:37:10;;;;;;;10.43;5.75;;;9.10;99.90;;;;;;5115654;28;20024;-58
2024/01/30 01:39:35;;;;;;;10.43;6.28;;;9.10;99.90;;;;;;5115638;28;20444;-59
2024/01/30 01:42:01;;;;;;;11.82;5.45;;;9.10;99.90;;;;;;5115797;28;20038;-38
2024/01/30 01:44:28;;;;;;;8.82;5.57;;;9.10;99.90;;;;;;5115447;28;20031;-40
2024/01/30 01:46:55;;;;;;;9.88;5.40;;;9.10;99.90;;;;;;5115721;28;20468;-38
2024/01/30 01:49:22;;;;;;;10.98;5.90;;;9.10;99.90;;;;;;5115610;28;20494;-40
2024/01/30 01:51:48;;;;;;;12.57;6.18;;;9.10;99.90;;;;;;5113382;28;20472;-39
2024/01/30 01:54:15;;;;;;;9.05;5.28;;;9.00;99.90;;;;;;5115333;28;20043;-39
2024/01/30 01:56:43;;;;;;;13.85;6.07;;;9.10;99.90;;;;;;5115558;28;20467;-43
2024/01/30 01:59:09;;;;;;;10.73;5.30;;;9.10;99.90;;;;;;5115538;28;20369;-42
2024/01/30 02:01:37;;;;;;;15.75;5.75;;;9.10;99.90;;;;;;5113906;28;20061;-49
2024/01/30 02:04:02;;;;;;;;;;;9.00;99.90;;;;;;5115214;28;20479;-54
2024/01/30 02:06:28;;;;;;;8.57;5.13;;;9.10;99.90;;;;;;5114322;28;19911;-53
2024/01/30 02:08:54;;;;;;;10.73;5.80;;;9.00;99.90;;;;;;5114140;28;20116;-54
2024/01/30 02:11:22;;;;;;;12.20;6.03;;;9.10;99.90;;;;;;5114966;28;20028;-55
2024/01/30 02:13:47;;;;;;;17.13;5.63;;;9.00;99.90;;;;;;5115234;27;20479;-57
2024/01/30 02:16:13;;;;;;;11.98;5.78;;;9.10;99.90;;;;;;5114923;28;20037;-55
2024/01/30 02:18:43;;;;;;;13.23;5.57;;;9.10;99.90;;;;;;5134937;27;20051;-55
2024/01/30 02:21:08;;;;;;;9.90;5.70;;;9.20;99.90;;;;;;5094488;27;20123;-55
2024/01/30 02:23:34;;;;;;;8.32;4.68;;;9.10;99.90;;;;;;5094278;28;20157;-39
2024/01/30 02:26:00;;;;;;;11.05;5.90;;;9.10;99.90;;;;;;5111584;28;20051;-40
2024/01/30 02:28:27;;;;;;;10.45;6.03;;;9.10;99.90;;;;;;5113412;28;20048;-41
2024/01/30 02:30:53;;;;;;;11.27;6.55;;;9.10;99.90;;;;;;5115009;27;20023;-38
2024/01/30 02:33:19;;;;;;;11.00;5.55;;;9.00;99.90;;;;;;5113271;28;20031;-39
2024/01/30 02:35:45;;;;;;;9.93;5.65;;;9.10;99.90;;;;;;5113815;28;20079;-40
2024/01/30 02:38:10;;;;;;;10.88;5.80;;;9.20;99.90;;;;;;5114520;28;20107;-40
2024/01/30 02:40:36;;;;;;;9.73;5.93;;;9.20;99.90;;;;;;5114434;28;20030;-41
2024/01/30 02:43:03;;;;;;;12.38;5.45;;;9.20;99.90;;;;;;5113440;28;20383;-40
2024/01/30 02:45:28;;;;;;;13.60;5.60;;;9.10;99.90;;;;;;5114295;28;20031;-40
2024/01/30 02:47:54;;;;;;;11.90;5.57;;;9.10;99.90;;;;;;5114331;28;20028;-39
2024/01/30 02:50:20;;;;;;;11.38;6.10;;;9.10;99.90;;;;;;5114434;28;20051;-42
2024/01/30 02:52:46;;;;;;;9.52;5.43;;;9.10;99.90;;;;;;5114421;28;20027;-40
2024/01/30 02:55:11;;;;;;;9.82;5.85;;;9.00;99.90;;;;;;5111461;28;20099;-55
2024/01/30 02:57:38;;;;;;;10.23;5.05;;;9.00;99.90;;;;;;5113924;28;20035;-40
2024/01/30 03:00:05;;;;;;;6.85;4.72;;;9.00;99.90;;;;;;5095834;27;20028;-40
2024/01/30 03:02:32;;;;;;;13.27;6.30;;;8.90;99.90;;;;;;5093640;28;20032;-40
2024/01/30 03:04:57;;;;;;;16.52;6.47;;;8.90;99.90;;;;;;5093634;28;20472;-40
2024/01/30 03:07:23;;;;;;;11.48;5.05;;;8.90;99.90;;;;;;5093565;28;20020;-39
2024/01/30 03:09:49;;;;;;;9.50;5.68;;;8.90;99.90;;;;;;5093429;28;20073;-41
2024/01/30 03:12:15;;;;;;;9.50;5.65;;;8.90;99.90;;;;;;5093720;28;20020;-41
2024/01/30 03:14:40;;;;;;;15.18;5.38;;;9.00;99.90;;;;;;5093430;28;20480;-54
2024/01/30 03:17:06;;;;;;;10.48;5.90;;;9.00;99.90;;;;;;5101301;28;20099;-57
2024/01/30 03:19:31;;;;;;;12.88;5.38;;;9.00;99.90;;;;;;5107432;28;20183;-54
2024/01/30 03:21:57;;;;;;;14.00;6.45;;;9.00;99.90;;;;;;5093595;28;20095;-52
2024/01/30 03:24:23;;;;;;;9.57;5.70;;;9.00;99.90;;;;;;5093186;28;20028;-53
2024/01/30 03:26:48;;;;;;;11.63;6.03;;;9.00;99.90;;;;;;5093198;28;20027;-54
2024/01/30 03:29:14;;;;;;;14.40;6.05;;;9.10;99.90;;;;;;5093486;28;20034;-55
2024/01/30 03:31:40;;;;;;;8.07;5.50;;;9.10;99.90;;;;;;5093214;28;20024;-54
2024/01/30 03:34:05;;;;;;;11.40;6.75;;;9.10;99.90;;;;;;5111183;28;20372;-55
2024/01/30 03:36:33;;;;;;;13.63;5.78;;;9.10;99.90;;;;;;5113738;28;20106;-54
2024/01/30 03:38:59;;;;;;;9.45;5.47;;;9.10;99.90;;;;;;5113412;28;20031;-54
2024/01/30 03:41:25;;;;;;;8.48;5.30;;;9.00;99.90;;;;;;5113706;28;20027;-43
2024/01/30 03:43:50;;;;;;;10.00;6.32;;;8.90;99.90;;;;;;5113268;28;20032;-38
2024/01/30 03:46:16;;;;;;;16.98;6.05;;;8.90;99.90;;;;;;5113311;28;20400;-39
2024/01/30 03:48:42;;;;;;;10.52;5.85;;;8.90;99.90;;;;;;5113206;28;20426;-40
2024/01/30 03:51:08;;;;;;;13.10;5.70;;;8.80;99.90;;;;;;5112659;28;20012;-40
2024/01/30 03:53:34;;;;;;;11.52;6.32;;;8.90;99.90;;;;;;5113200;28;20024;-41
2024/01/30 03:55:59;;;;;;;10.27;5.72;;;8.90;99.90;;;;;;5112570;28;20229;-38
2024/01/30 03:58:25;;;;;;;10.57;5.88;;;8.90;99.90;;;;;;5092715;28;20024;-39
2024/01/30 04:00:51;;;;;;;10.25;5.60;;;8.80;99.90;;;;;;5092738;28;20031;-55
2024/01/30 04:03:17;;;;;;;10.98;5.70;;;8.80;99.90;;;;;;5092971;28;20047;-55
2024/01/30 04:05:43;;;;;;;11.70;6.38;;;8.80;99.90;;;;;;5091430;28;20550;-55
2024/01/30 04:08:09;;;;;;;9.18;5.25;;;8.80;99.90;;;;;;5098546;28;20495;-54
2024/01/30 04:10:35;;;;;;;14.02;5.90;;;8.90;99.90;;;;;;5113085;28;20031;-55
2024/01/30 04:13:01;;;;;;;10.85;5.35;;;8.90;99.90;;;;;;5105010;28;20028;-55
2024/01/30 04:15:27;;;;;;;9.50;6.07;;;8.90;99.90;;;;;;5092691;28;20511;-55
2024/01/30 04:17:53;;;;;;;8.65;5.68;;;9.00;99.90;;;;;;5106651;28;20551;-56
2024/01/30 04:20:19;;;;;;;9.10;5.43;;;9.00;99.90;;;;;;5112751;28;20114;-55
2024/01/30 04:22:45;;;;;;;8.73;5.05;;;9.10;99.90;;;;;;5112897;28;20024;-39
2024/01/30 04:25:14;;;;;;;9.65;5.97;;;9.00;99.90;;;;;;5101513;28;20024;-40
2024/01/30 04:27:39;;;;;;;10.68;6.05;;;9.10;99.90;;;;;;5112923;28;20020;-43
2024/01/30 04:30:06;;;;;;;10.60;5.35;;;9.10;99.90;;;;;;5112908;28;20027;-38
2024/01/30 04:32:32;;;;;;;14.07;5.55;;;9.10;99.90;;;;;;5112934;28;20024;-42
2024/01/30 04:34:58;;;;;;;9.32;5.30;;;9.10;99.90;;;;;;5112927;28;20475;-42
2024/01/30 04:37:24;;;;;;;11.43;5.78;;;9.20;99.90;;;;;;5112878;28;20031;-39
2024/01/30 04:39:50;;;;;;;12.32;5.57;;;9.20;99.90;;;;;;5112769;28;20494;-39
2024/01/30 04:42:16;;;;;;;10.80;5.88;;;9.20;99.90;;;;;;5112051;28;20023;-41
2024/01/30 04:44:42;;;;;;;12.85;5.60;;;9.20;99.90;;;;;;5112644;28;20020;-41
2024/01/30 04:47:08;;;;;;;10.90;5.03;;;9.20;99.90;;;;;;5112764;28;20024;-42
2024/01/30 04:49:35;;;;;;;15.07;5.15;;;9.20;99.90;;;;;;5112753;28;20153;-39
2024/01/30 04:52:00;;;;;;;10.52;5.38;;;9.20;99.90;;;;;;5111427;28;20479;-42
2024/01/30 04:54:26;;;;;;;7.78;5.22;;;9.30;99.90;;;;;;5096493;28;20097;-45
2024/01/30 04:56:52;;;;;;;8.05;5.07;;;9.30;99.90;;;;;;5092618;28;20028;-39
2024/01/30 04:59:18;;;;;;;8.70;5.55;;;9.40;99.90;;;;;;5113358;28;20022;-41
2024/01/30 05:01:43;;;;;;;9.77;5.80;;;9.50;99.90;;;;;;5116385;28;20471;-39
2024/01/30 05:04:09;;;;;;;11.43;5.07;;;9.50;99.90;;;;;;5116252;28;20028;-39
2024/01/30 05:06:35;;;;;;;8.27;4.82;;;9.50;99.90;;;;;;5116323;27;20536;-40
2024/01/30 05:09:01;;;;;;;12.23;6.07;;;9.50;99.90;;;;;;5116272;28;20384;-39
2024/01/30 05:11:27;;;;;;;24.70;6.63;;;9.60;99.90;;;;;;5116474;28;20460;-41
2024/01/30 05:13:52;;;;;;;16.50;5.60;;;9.60;99.90;;;;;;5115813;28;20026;-41
2024/01/30 05:16:18;;;;;;;14.90;5.25;;;9.60;99.90;;;;;;5096175;28;20431;-42
2024/01/30 05:18:44;;;;;;;10.55;5.97;;;9.70;99.90;;;;;;5095482;28;20101;-55
2024/01/30 05:21:10;;;;;;;14.75;5.78;;;9.70;99.90;;;;;;5095591;28;20028;-56
2024/01/30 05:23:37;;;;;;;14.13;5.30;;;9.70;99.90;;;;;;5095794;28;20044;-55
2024/01/30 05:26:03;;;;;;;8.25;4.35;;;9.60;99.90;;;;;;5095481;28;20065;-56
2024/01/30 05:28:32;;;;;;;10.85;4.82;;;9.70;99.90;;;;;;5095463;28;20020;-41
2024/01/30 05:31:00;;;;;;;7.85;4.35;;;9.60;99.90;;;;;;5095887;28;20023;-41
2024/01/30 05:33:25;;;;;;;13.50;5.32;;;9.70;99.90;;;;;;5095339;28;20123;-44
2024/01/30 05:35:54;;;;;;;13.07;5.70;;;9.70;99.90;;;;;;5095296;28;20028;-40
2024/01/30 05:38:20;;;;;;;8.70;5.28;;;9.70;99.90;;;;;;5095189;28;20081;-56
2024/01/30 05:40:45;;;;;;;19.00;5.50;;;9.70;99.90;;;;;;5094249;28;20024;-55
2024/01/30 05:43:11;;;;;;;8.60;5.35;;;9.60;99.90;;;;;;5095129;28;20077;-56
2024/01/30 05:45:37;;;;;;;9.73;5.03;;;9.70;99.90;;;;;;5095064;28;20016;-54
2024/01/30 05:48:03;;;;;;;11.95;6.05;;;9.70;99.90;;;;;;5095581;28;20499;-55
2024/01/30 05:50:29;;;;;;;13.60;5.30;;;9.70;99.90;;;;;;5095348;28;20484;-54
2024/01/30 05:52:54;;;;;;;7.20;4.47;;;9.80;99.90;;;;;;5098441;28;20096;-56
2024/01/30 05:55:20;;;;;;;12.43;5.43;;;9.80;99.90;;;;;;5115251;28;20011;-55
2024/01/30 05:57:45;;;;;;;15.30;5.78;;;9.80;99.90;;;;;;5111500;28;20008;-59
2024/01/30 06:00:11;;;;;;;8.07;5.32;;;9.90;99.90;;;;;;5094945;28;20055;-56
2024/01/30 06:02:37;;;;;;;15.35;5.70;;;9.80;99.90;;;;;;5094971;28;20016;-56
2024/01/30 06:05:03;;;;;;;10.38;5.63;;;9.90;99.90;;;;;;5095782;28;20031;-52
2024/01/30 06:07:28;;;;;;;10.32;4.88;;;10.00;99.90;;;;;;5115135;28;20051;-55
2024/01/30 06:09:54;;;;;;;13.95;5.38;;;10.00;99.90;;;;;;5113961;28;20024;-54
2024/01/30 06:12:20;;;;;;;12.23;6.13;;;10.00;99.90;;;;;;5115277;28;20024;-55
2024/01/30 06:14:45;;;;;;;10.27;5.03;;;10.00;99.90;;;;;;5114931;28;20368;-55
2024/01/30 06:17:11;;;;;;;6.22;4.75;;;10.00;99.90;;;;;;5114908;28;20476;-56
2024/01/30 06:19:39;;;;;;;13.98;5.38;;;10.00;99.90;;;;;;5114767;28;20563;-56
2024/01/30 06:22:05;;;;;;;9.60;4.75;;;10.00;99.90;;;;;;5113885;28;20031;-55
2024/01/30 06:24:31;;;;;;;10.02;5.60;;;10.10;99.90;;;;;;5114718;28;20455;-55
2024/01/30 06:26:56;;;;;;;10.68;5.78;;;10.10;99.90;;;;;;5114946;28;20387;-54
2024/01/30 06:29:24;;;;;;;9.05;4.88;;;10.20;99.90;;;;;;5114945;27;20023;-55
2024/01/30 06:31:50;;;;;;;12.30;5.15;;;10.20;99.90;;;;;;5114640;28;20080;-57
2024/01/30 06:34:16;;;;;;;11.00;5.40;;;10.20;99.90;;;;;;5114850;28;20492;-56
2024/01/30 06:36:41;;;;;;;10.27;4.82;;;10.20;99.90;;;;;;5114525;28;20114;-55
2024/01/30 06:39:07;;;;;;;8.98;5.38;;;10.20;99.90;;;;;;5112338;28;20395;-56
2024/01/30 06:41:33;;;;;;;8.23;4.53;;;10.30;99.90;;;;;;5114436;28;20424;-53
2024/01/30 06:43:59;;;;;;;12.48;5.07;;;10.20;99.90;;;;;;5114311;28;20115;-56
2024/01/30 06:46:25;;;;;;;10.63;5.25;;;10.30;99.90;;;;;;5114539;28;20102;-55
2024/01/30 06:48:50;;;;;;;12.88;5.50;;;10.30;99.90;;;;;;5104512;28;20028;-54
2024/01/30 06:51:16;;;;;;;9.13;5.03;;;10.30;99.90;;;;;;5093885;28;20024;-55
2024/01/30 06:53:42;;;;;;;9.98;5.00;;;10.30;99.90;;;;;;5093792;28;20032;-56
2024/01/30 06:56:08;;;;;;;7.95;4.38;;;10.30;99.90;;;;;;5106517;28;20395;-54
2024/01/30 06:58:33;;;;;;;10.43;4.43;;;10.40;99.90;;;;;;5093699;28;20471;-54
2024/01/30 07:00:59;;;;;;;11.60;4.95;;;10.40;99.90;;;;;;5093618;28;20020;-56
2024/01/30 07:03:25;;;;;;;9.32;5.05;;;10.40;99.90;;;;;;5093747;28;20024;-55
2024/01/30 07:05:51;;;;;;;7.07;5.00;;;10.30;99.90;;;;;;5093782;28;20386;-52
2024/01/30 07:08:20;;;;;;;8.45;4.82;;;10.30;99.90;;;;;;5093701;28;20024;-57
2024/01/30 07:10:47;;;;;;;9.70;5.13;;;10.40;99.90;;;;;;5093812;28;20017;-57
2024/01/30 07:13:12;;;;;;;12.13;5.15;;;10.40;99.90;;;;;;5092773;28;20472;-56
2024/01/30 07:15:38;;;;;;;10.38;5.10;;;10.40;99.90;;;;;;5093706;28;20027;-56
2024/01/30 07:18:05;;;;;;;9.32;4.65;;;10.40;99.90;;;;;;5093085;28;20028;-56
2024/01/30 07:20:31;;;;;;;8.45;4.82;;;10.30;99.90;;;;;;5093272;28;20503;-57
2024/01/30 07:22:58;;;;;;;10.30;4.50;;;10.30;99.90;;;;;;5091855;28;20020;-56
2024/01/30 07:25:28;;;;;;;10.82;6.30;;;10.40;99.90;;;;;;5093232;28;20028;-53
2024/01/30 07:27:54;;;;;;;11.52;5.65;;;10.40;99.90;;;;;;5093234;28;20498;-59
2024/01/30 07:30:20;;;;;;;9.23;4.85;;;10.40;99.90;;;;;;5094284;28;20016;-56
2024/01/30 07:32:46;;;;;;;9.00;4.85;;;10.40;99.90;;;;;;5093413;28;20464;-55
2024/01/30 07:35:12;;;;;;;7.68;4.88;;;10.50;99.90;;;;;;5093129;28;20034;-57
2024/01/30 07:37:38;;;;;;;12.52;4.82;;;10.50;99.90;;;;;;5093060;28;20545;-56
2024/01/30 07:40:04;;;;;;;10.23;5.38;;;10.60;99.90;;;;;;5092943;28;20032;-53
2024/01/30 07:42:30;;;;;;;9.05;5.53;;;10.60;99.90;;;;;;5093227;28;20392;-56
2024/01/30 07:44:56;;;;;;;10.23;5.05;;;10.60;99.90;;;;;;5092855;28;20024;-56
2024/01/30 07:47:21;;;;;;;12.88;5.00;;;10.60;99.90;;;;;;5093551;28;20024;-55
2024/01/30 07:49:47;;;;;;;7.75;4.85;;;10.60;99.90;;;;;;5108855;28;20027;-56
2024/01/30 07:52:13;;;;;;;14.70;5.47;;;10.70;99.90;;;;;;5113222;28;20108;-54
2024/01/30 07:54:48;;;;;;;7.78;4.40;;;10.70;99.90;;;;;;5110734;28;20494;-55
2024/01/30 07:57:13;;;;;;;9.90;4.72;;;10.70;99.90;;;;;;5093146;28;20025;-56
2024/01/30 07:59:39;;;;;;;7.88;4.55;;;10.70;99.90;;;;;;5092769;28;20100;-55
2024/01/30 08:02:05;;;;;;;9.60;4.65;;;10.70;99.90;;;;;;5092764;28;20028;-55
2024/01/30 08:04:30;;;;;;;13.10;4.60;;;10.70;99.90;;;;;;5093181;28;20032;-55
2024/01/30 08:06:56;;;;;;;10.63;5.10;;;10.70;99.90;;;;;;5092696;28;20024;-56
2024/01/30 08:09:21;;;;;;;17.27;5.05;;;10.80;99.90;;;;;;5092765;28;20450;-58
2024/01/30 08:11:47;;;;;;;14.27;6.05;;;10.80;99.90;;;;;;5092660;28;20052;-57
2024/01/30 08:14:13;;;;;;;15.13;5.38;;;10.90;99.90;;;;;;5092703;28;20035;-56
2024/01/30 08:16:39;;;;;;;13.30;4.85;;;10.90;99.90;;;;;;5092949;28;20024;-57
2024/01/30 08:19:05;;;;;;;12.43;5.22;;;10.90;99.90;;;;;;5092531;28;20411;-57
2024/01/30 08:21:35;;;;;;;8.25;4.68;;;10.90;99.90;;;;;;5093640;28;20561;-40
2024/01/30 08:24:03;;;;;;;9.25;5.28;;;10.90;99.90;;;;;;5092581;28;20556;-38
2024/01/30 08:26:28;;;;;;;14.87;4.90;;;10.90;99.90;;;;;;5092606;28;20504;-40
2024/01/30 08:28:54;;;;;;;11.88;4.88;;;11.00;99.90;;;;;;5092582;28;20054;-43
2024/01/30 08:31:20;;;;;;;12.95;4.90;;;11.00;99.90;;;;;;5092680;28;20044;-38
2024/01/30 08:33:45;;;;;;;11.95;4.57;;;11.00;99.90;;;;;;5095605;28;20495;-38
2024/01/30 08:36:11;;;;;;;13.43;5.53;;;11.00;99.90;;;;;;5096462;28;20125;-39
2024/01/30 08:38:36;;;;;;;19.65;4.85;;;11.00;99.90;;;;;;5096895;28;20032;-40
2024/01/30 08:41:02;;;;;;;14.40;5.40;;;11.00;99.90;;;;;;5096646;28;20058;-40
2024/01/30 08:43:28;;;;;;;9.90;6.30;;;11.10;99.90;;;;;;5095092;28;20028;-40
2024/01/30 08:45:54;;;;;;;9.88;5.43;;;11.10;99.90;;;;;;5096478;28;20051;-40
2024/01/30 08:48:21;;;;;;;12.50;5.03;;;11.20;99.90;;;;;;5096431;28;20020;-42
2024/01/30 08:50:47;;;;;;;10.87;5.10;;;11.30;99.90;;;;;;5107100;28;20020;-39
2024/01/30 08:53:12;;;;;;;15.15;4.88;;;11.40;99.90;;;;;;5116489;28;20102;-39
2024/01/30 08:55:39;;;;;;;12.32;5.88;;;11.40;99.90;;;;;;5110252;28;20024;-40
2024/01/30 08:58:05;;;;;;;10.93;5.10;;;11.40;99.90;;;;;;5095957;28;20035;-41
2024/01/30 09:00:30;;;;;;;15.65;4.90;;;11.40;99.90;;;;;;5096002;28;20024;-43
2024/01/30 09:02:56;;;;;;;20.42;6.15;;;11.50;99.90;;;;;;5096090;28;20157;-42
2024/01/30 09:05:21;;;;;;;17.20;5.30;;;11.50;99.90;;;;;;5096179;28;20426;-40
2024/01/30 09:07:47;;;;;;;15.25;5.60;;;11.50;99.90;;;;;;5095921;28;20032;-40
2024/01/30 09:10:13;;;;;;;15.00;5.05;;;11.50;99.90;;;;;;5095862;28;20392;-40
2024/01/30 09:12:38;;;;;;;12.90;4.88;;;11.50;99.90;;;;;;5096427;28;20390;-41
2024/01/30 09:15:05;;;;;;;12.05;5.40;;;11.50;99.90;;;;;;5094492;28;20059;-41
2024/01/30 09:17:31;;;;;;;11.40;5.25;;;11.60;99.90;;;;;;5095934;28;20051;-40
2024/01/30 09:19:56;;;;;;;12.70;5.13;;;11.50;99.90;;;;;;5095518;28;20039;-40
2024/01/30 09:22:22;;;;;;;16.05;5.93;;;11.50;99.90;;;;;;5094271;28;20036;-39
2024/01/30 09:24:48;;;;;;;14.20;5.55;;;11.50;99.90;;;;;;5094174;28;20454;-40
2024/01/30 09:27:13;;;;;;;17.50;5.10;;;11.50;99.90;;;;;;5095539;28;20020;-39
2024/01/30 09:29:39;;;;;;;14.57;5.72;;;11.60;99.90;;;;;;5096243;28;20017;-42
2024/01/30 09:32:06;;;;;;;16.17;6.00;;;11.60;99.90;;;;;;5095472;28;20028;-38
2024/01/30 09:34:32;;;;;;;13.07;4.53;;;11.60;99.90;;;;;;5095685;28;20047;-41
2024/01/30 09:36:59;;;;;;;16.50;4.90;;;11.70;99.90;;;;;;5095362;28;20519;-42
2024/01/30 09:39:25;;;;;;;9.02;5.47;;;11.70;99.90;;;;;;5095355;28;20101;-43
2024/01/30 09:42:15;;;;;;;8.63;4.85;;;11.70;99.90;;;;;;5095262;28;20028;-40
2024/01/30 09:44:43;;;;;;;18.55;6.32;;;11.80;99.90;;;;;;5098122;28;20035;-41
2024/01/30 09:47:10;;;;;;;15.27;5.80;;;11.90;99.90;;;;;;5105000;28;20484;-40
2024/01/30 09:49:36;;;;;;;13.45;5.68;;;12.00;99.90;;;;;;5114399;28;20032;-41
2024/01/30 09:52:06;;;;;;;10.77;5.15;;;12.00;99.90;;;;;;5095002;28;20030;-40
2024/01/30 09:54:32;;;;;;;7.53;5.00;;;12.00;99.90;;;;;;5094994;28;20036;-40
2024/01/30 09:56:58;;;;;;;12.77;5.65;;;12.00;99.90;;;;;;5094832;28;20042;-44
2024/01/30 09:59:24;;;;;;;11.27;5.35;;;12.00;99.90;;;;;;5093598;28;20028;-40
2024/01/30 10:01:51;;;;;;;12.52;4.85;;;12.10;99.90;;;;;;5094848;28;20035;-40
2024/01/30 10:04:17;;;;;;;8.65;5.60;;;12.20;99.90;;;;;;5095252;28;20028;-40
2024/01/30 10:06:42;;;;;;;10.50;5.47;;;12.30;99.90;;;;;;5094789;28;20032;-40
2024/01/30 10:09:09;;;;;;;17.33;5.78;;;12.30;99.90;;;;;;5093462;28;20032;-41
2024/01/30 10:11:36;;;;;;;12.43;4.90;;;12.30;99.90;;;;;;5094666;28;20092;-39
2024/01/30 10:14:02;;;;;;;10.40;4.90;;;12.40;99.90;;;;;;5094617;28;20126;-40
2024/01/30 10:16:28;;;;;;;8.75;4.97;;;12.50;99.90;;;;;;5094506;28;20103;-50
2024/01/30 10:18:53;;;;;;;14.48;4.97;;;12.50;99.90;;;;;;5094335;28;20048;-41
2024/01/30 10:21:19;;;;;;;11.48;5.07;;;12.50;99.90;;;;;;5095011;28;20365;-39
2024/01/30 10:23:45;;;;;;;9.73;4.53;;;12.50;99.90;;;;;;5093087;28;20062;-39
2024/01/30 10:26:11;;;;;;;11.48;5.45;;;12.50;99.90;;;;;;5094370;28;20028;-41
2024/01/30 10:28:36;;;;;;;8.15;5.00;;;12.50;99.90;;;;;;5094337;28;20032;-41
2024/01/30 10:31:05;;;;;;;11.18;4.38;;;12.40;99.90;;;;;;5094320;28;20366;-42
2024/01/30 10:33:31;;;;;;;11.38;5.15;;;12.40;99.90;;;;;;5094288;28;20507;-46
2024/01/30 10:36:04;;;;;;;9.35;4.95;;;12.30;99.90;;;;;;5092873;28;20031;-40
2024/01/30 10:38:31;;;;;;;12.98;4.78;;;12.40;99.90;;;;;;5094679;28;20028;-41
2024/01/30 10:40:58;;;;;;;11.20;4.47;;;12.40;99.90;;;;;;5094207;28;20492;-56
2024/01/30 10:43:34;;;;;;;11.90;5.40;;;12.40;99.90;;;;;;5094149;28;20801;-56
2024/01/30 10:46:15;;;;;;;13.85;5.22;;;12.40;99.90;;;;;;5108215;28;20023;-57
2024/01/30 10:48:51;;;;;;;9.50;4.47;;;12.40;99.90;;;;;;5101141;28;20036;-55
2024/01/30 10:51:18;;;;;;;12.95;5.35;;;12.30;99.90;;;;;;5093978;28;20127;-57
2024/01/30 10:53:46;;;;;;;9.75;5.03;;;12.30;99.90;;;;;;5092574;28;20093;-56
2024/01/30 10:56:13;;;;;;;9.55;5.47;;;12.30;99.90;;;;;;5094172;28;20028;-59
2024/01/30 10:58:39;;;;;;;12.27;4.40;;;12.30;99.90;;;;;;5093827;28;20119;-53
2024/01/30 11:01:07;;;;;;;7.97;3.95;;;12.30;99.90;;;;;;5093513;28;20064;-56
2024/01/30 11:03:36;;;;;;;7.50;3.63;;;12.40;99.90;;;;;;5093459;28;20069;-57
2024/01/30 11:06:02;;;;;;;7.60;3.67;;;12.40;99.90;;;;;;5093526;28;20035;-57
2024/01/30 11:08:28;;;;;;;9.27;3.45;;;12.40;99.90;;;;;;5093581;28;20027;-57
2024/01/30 11:10:58;;;;;;;6.28;3.25;;;12.20;99.90;;;;;;5093606;28;20032;-56
2024/01/30 11:13:30;;;;;;;5.93;2.97;;;12.00;99.90;;;;;;5093377;28;20047;-58
2024/01/30 11:16:01;;;;;;;5.25;2.80;;;11.90;99.90;;;;;;5093482;28;20085;-55
2024/01/30 11:18:29;;;;;;;10.57;2.50;;;11.80;99.90;;;;;;5093422;28;20492;-57
2024/01/30 11:21:01;;;;;;;6.00;1.95;;;11.70;99.90;;;;;;5092257;28;20056;-51
2024/01/30 11:23:28;;;;;;;6.22;2.17;;;11.50;99.90;;;;;;5093517;28;20028;-56
2024/01/30 11:25:54;;;;;;;13.00;3.10;;;11.50;99.90;;;;;;5093539;28;20460;-57
2024/01/30 11:28:21;;;;;;;8.02;1.80;;;11.60;99.90;;;;;;5093751;28;20480;-56
2024/01/30 11:30:50;;;;;;;7.25;2.08;;;11.60;99.90;;;;;;5093187;28;20476;-56
2024/01/30 11:33:27;;;;;;;5.60;1.52;;;11.50;99.90;;;;;;5093431;28;20477;-58
2024/01/30 11:35:53;;;;;;;4.88;1.55;;;11.40;99.90;;;;;;5093457;28;20514;-57
2024/01/30 11:38:18;;;;;;;3.42;1.60;;;11.30;99.90;;;;;;5093057;28;20052;-57
2024/01/30 11:40:44;;;;;;;5.50;1.70;;;11.50;99.90;;;;;;5093028;28;20031;-56
2024/01/30 11:43:10;;;;;;;5.07;1.90;;;11.50;99.90;;;;;;5092772;28;20024;-56
2024/01/30 11:45:36;;;;;;;4.45;2.25;;;11.50;99.90;;;;;;5097116;28;20089;-55
2024/01/30 11:48:03;;;;;;;3.28;2.30;;;11.60;99.90;;;;;;5105806;28;20051;-56
2024/01/30 11:50:33;;;;;;;3.47;1.75;;;11.70;99.90;;;;;;5092975;28;20046;-56
2024/01/30 11:53:02;;;;;;;5.15;1.58;;;11.60;99.90;;;;;;5092868;28;20024;-58
2024/01/30 11:55:32;;;;;;;2.08;1.80;;;11.50;99.90;;;;;;5107395;27;20019;-56
2024/01/30 11:57:58;;;;;;;2.67;2.30;;;11.30;99.90;;;;;;5133721;27;20020;-57
2024/01/30 12:00:24;;;;;;;5.97;1.58;;;11.10;99.90;;;;;;5133755;27;20076;-58
2024/01/30 12:02:57;;;;;;;4.82;1.30;;;10.90;99.90;;;;;;5117515;27;20361;-55
2024/01/30 12:05:24;;;;;;;3.38;1.00;;;10.60;99.90;;;;;;5092847;28;20392;-57
2024/01/30 12:07:51;;;;;;;9.70;1.88;;;10.60;99.90;;;;;;5094238;28;20030;-58
2024/01/30 12:10:17;;;;;;;4.72;1.40;;;10.40;99.90;;;;;;5096952;28;20028;-58
2024/01/30 12:12:49;;;;;;;9.13;1.08;;;10.30;99.90;;;;;;5097195;28;20460;-62
2024/01/30 12:15:16;;;;;;;10.70;1.40;;;10.20;99.90;;;;;;5096970;28;20048;-56
2024/01/30 12:17:42;;;;;;;1.73;1.00;;;10.20;99.90;;;;;;5097070;28;20503;-58
2024/01/30 12:20:08;;;;;;;3.75;0.85;;;10.20;99.90;;;;;;5097183;28;20066;-56
2024/01/30 12:22:40;;;;;;;10.23;1.67;;;10.30;99.90;;;;;;5096746;28;20111;-58
2024/01/30 12:25:08;;;;;;;2.53;1.10;;;10.40;99.90;;;;;;5096665;28;20399;-55
2024/01/30 12:27:34;;;;;;;1.20;1.00;;;10.50;99.90;;;;;;5096639;28;20035;-57
2024/01/30 12:30:00;;;;;;;2.78;1.63;;;10.50;99.90;;;;;;5096860;28;20518;-57
2024/01/30 12:32:26;;;;;;;3.08;1.42;;;10.50;99.90;;;;;;5096858;28;20020;-57
2024/01/30 12:34:56;;;;;;;1.95;1.17;;;10.50;99.90;;;;;;5096564;28;20491;-56
2024/01/30 12:37:24;;;;;;;4.75;1.20;;;10.60;99.90;;;;;;5097327;28;20024;-56
2024/01/30 12:39:51;;;;;;;1.67;0.90;;;10.60;99.90;;;;;;5078651;28;20519;-55
2024/01/30 12:42:19;;;;;;;3.20;1.00;;;10.60;99.90;;;;;;5097011;28;20020;-57